Time;durP1;ratioP1;P1;durP2;ratioP2;P2;SDS_P1;SDS_P2;PMS_P1;PMS_P2;Temp;Humidity;BMP_temperature;BMP_pressure;BME280_temperature;BME280_humidity;BME280_pressure;Samples;Min_cycle;Max_cycle;Signal;HPM_P1;HPM_P2
2022/03/04 00:00:14;;;;;;;15.80;8.23;;;;;;;0.12;100.00;98689.63;5132557;28;20138;-62
2022/03/04 00:02:40;;;;;;;15.93;7.88;;;;;;;0.14;100.00;98677.44;5131955;28;20051;-62
2022/03/04 00:05:07;;;;;;;20.70;8.85;;;;;;;0.17;100.00;98666.06;5132511;28;20502;-62
2022/03/04 00:07:33;;;;;;;21.33;7.88;;;;;;;0.13;100.00;98626.53;5132671;28;20055;-62
2022/03/04 00:10:00;;;;;;;12.65;7.70;;;;;;;0.07;100.00;98628.56;5132390;28;20055;-62
2022/03/04 00:12:26;;;;;;;18.10;8.27;;;;;;;0.12;100.00;98663.47;5132249;28;20104;-62
2022/03/04 00:14:53;;;;;;;19.73;8.90;;;;;;;0.16;100.00;98664.44;5132642;28;20105;-62
2022/03/04 00:17:19;;;;;;;22.33;7.85;;;;;;;0.15;100.00;98659.38;5132286;28;20057;-62
2022/03/04 00:19:46;;;;;;;21.83;8.23;;;;;;;0.11;100.00;98634.94;5132467;28;20052;-62
2022/03/04 00:22:14;;;;;;;16.80;7.35;;;;;;;0.11;100.00;98632.25;5132140;28;20058;-62
2022/03/04 00:24:40;;;;;;;16.42;7.55;;;;;;;0.11;100.00;98631.44;5132435;28;20498;-62
2022/03/04 00:27:07;;;;;;;12.35;7.07;;;;;;;0.19;100.00;98638.78;5132376;28;20047;-62
2022/03/04 00:29:33;;;;;;;15.80;8.05;;;;;;;0.16;100.00;98617.81;5132180;28;20411;-62
2022/03/04 00:32:00;;;;;;;12.52;7.03;;;;;;;0.06;100.00;98597.31;5132009;28;20043;-62
2022/03/04 00:34:26;;;;;;;15.70;7.63;;;;;;;0.11;100.00;98621.47;5132196;28;20043;-62
2022/03/04 00:36:53;;;;;;;17.08;8.13;;;;;;;0.18;100.00;98618.31;5131935;28;20433;-62
2022/03/04 00:39:19;;;;;;;15.30;7.80;;;;;;;0.02;100.00;98592.88;5131831;28;20049;-62
2022/03/04 00:41:45;;;;;;;16.45;7.95;;;;;;;0.00;100.00;98612.06;5131727;27;20047;-62
2022/03/04 00:44:12;;;;;;;12.07;7.63;;;;;;;0.06;100.00;98618.88;5131955;28;20529;-62
2022/03/04 00:46:38;;;;;;;14.43;7.32;;;;;;;0.15;100.00;98624.31;5132367;28;20520;-62
2022/03/04 00:49:05;;;;;;;11.77;6.75;;;;;;;0.14;100.00;98612.75;5131864;28;20043;-62
2022/03/04 00:51:32;;;;;;;18.75;7.00;;;;;;;0.11;100.00;98580.22;5132397;28;20047;-63
2022/03/04 00:53:58;;;;;;;13.05;7.57;;;;;;;0.14;100.00;98566.94;5132127;28;20076;-62
2022/03/04 00:56:24;;;;;;;18.60;6.45;;;;;;;0.17;100.00;98563.63;5131775;28;20047;-62
2022/03/04 00:58:50;;;;;;;17.60;7.05;;;;;;;0.09;100.00;98536.63;5131580;28;20051;-62
2022/03/04 01:01:17;;;;;;;13.20;6.85;;;;;;;-0.01;100.00;98516.91;5131493;28;20051;-62
2022/03/04 01:03:44;;;;;;;11.98;6.32;;;;;;;-0.09;100.00;98522.28;5131116;28;20051;-63
2022/03/04 01:06:10;;;;;;;12.20;6.15;;;;;;;-0.19;100.00;98546.78;5131529;28;20053;-62
2022/03/04 01:08:37;;;;;;;14.80;6.90;;;;;;;-0.10;100.00;98536.84;5131346;28;20051;-62
2022/03/04 01:11:03;;;;;;;11.63;6.20;;;;;;;-0.18;100.00;98521.44;5131534;28;20063;-62
2022/03/04 01:13:29;;;;;;;12.68;6.28;;;;;;;-0.16;100.00;98538.09;5131630;28;20047;-62
2022/03/04 01:15:56;;;;;;;13.68;6.57;;;;;;;-0.21;100.00;98528.22;5131374;28;20076;-62
2022/03/04 01:18:22;;;;;;;16.95;6.25;;;;;;;-0.29;100.00;98527.09;5131558;28;20043;-62
2022/03/04 01:20:48;;;;;;;11.38;6.40;;;;;;;-0.32;100.00;98540.38;5131068;28;20046;-63
2022/03/04 01:23:15;;;;;;;12.23;6.15;;;;;;;-0.32;100.00;98548.47;5131297;28;20058;-62
2022/03/04 01:25:42;;;;;;;11.55;5.90;;;;;;;-0.26;100.00;98555.31;5131140;28;20063;-63
2022/03/04 01:28:08;;;;;;;12.85;6.25;;;;;;;-0.24;100.00;98545.81;5131172;28;20053;-62
2022/03/04 01:30:34;;;;;;;12.35;6.63;;;;;;;-0.21;100.00;98530.13;5131136;28;20509;-62
2022/03/04 01:33:01;;;;;;;11.70;5.93;;;;;;;-0.13;100.00;98540.97;5131034;28;20053;-63
2022/03/04 01:35:28;;;;;;;9.50;5.60;;;;;;;-0.07;100.00;98555.09;5130948;28;20047;-62
2022/03/04 01:37:54;;;;;;;11.07;6.07;;;;;;;-0.24;100.00;98542.31;5131248;28;20074;-62
2022/03/04 01:40:21;;;;;;;10.07;6.90;;;;;;;-0.13;100.00;98594.84;5130809;28;20051;-63
2022/03/04 01:42:47;;;;;;;11.98;5.63;;;;;;;-0.17;100.00;98574.22;5130998;28;20059;-62
2022/03/04 01:45:13;;;;;;;11.60;5.97;;;;;;;-0.14;100.00;98606.72;5131228;28;20054;-62
2022/03/04 01:47:42;;;;;;;13.27;6.45;;;;;;;-0.10;100.00;98631.16;5130902;28;20059;-62
2022/03/04 01:50:09;;;;;;;13.43;6.00;;;;;;;-0.22;100.00;98618.25;5131088;28;20051;-62
2022/03/04 01:52:35;;;;;;;11.85;6.25;;;;;;;-0.28;100.00;98641.81;5129746;27;20051;-62
2022/03/04 01:55:01;;;;;;;10.15;5.75;;;;;;;-0.22;100.00;98674.81;5130851;28;20051;-62
2022/03/04 01:57:28;;;;;;;10.68;6.78;;;;;;;-0.20;100.00;98691.47;5130742;28;20159;-62
2022/03/04 01:59:54;;;;;;;12.25;6.38;;;;;;;-0.13;100.00;98699.16;5130742;28;20103;-62
2022/03/04 02:02:21;;;;;;;11.05;5.75;;;;;;;-0.14;100.00;98690.25;5130241;28;20424;-63
2022/03/04 02:04:49;;;;;;;10.40;5.30;;;;;;;-0.20;100.00;98680.72;5130716;28;20047;-62
2022/03/04 02:07:15;;;;;;;13.23;6.57;;;;;;;-0.28;100.00;98676.03;5130886;28;20047;-62
2022/03/04 02:09:42;;;;;;;13.05;6.63;;;;;;;-0.27;100.00;98700.00;5130634;28;20043;-62
2022/03/04 02:12:08;;;;;;;12.23;6.30;;;;;;;-0.25;100.00;98705.84;5130872;28;20051;-62
2022/03/04 02:14:35;;;;;;;12.65;5.88;;;;;;;-0.17;100.00;98719.69;5130461;28;20594;-62
2022/03/04 02:17:03;;;;;;;13.90;6.30;;;;;;;-0.21;100.00;98695.25;5130776;28;20051;-62
2022/03/04 02:19:30;;;;;;;10.02;5.90;;;;;;;-0.38;100.00;98671.69;5128517;28;20066;-62
2022/03/04 02:22:00;;;;;;;13.35;6.25;;;;;;;-0.38;100.00;98679.75;5130586;28;20047;-62
2022/03/04 02:24:28;;;;;;;10.82;5.53;;;;;;;-0.26;100.00;98701.56;5130291;28;20055;-62
2022/03/04 02:26:56;;;;;;;7.88;5.07;;;;;;;-0.39;100.00;98690.84;5130663;28;20047;-62
2022/03/04 02:29:23;;;;;;;11.20;5.38;;;;;;;-0.37;100.00;98702.09;5130492;28;20047;-62
2022/03/04 02:31:50;;;;;;;12.07;5.22;;;;;;;-0.39;100.00;98680.88;5130475;28;20438;-62
2022/03/04 02:34:16;;;;;;;9.35;5.10;;;;;;;-0.37;100.00;98677.84;5130634;28;20395;-62
2022/03/04 02:36:43;;;;;;;13.68;5.68;;;;;;;-0.29;100.00;98679.84;5130068;28;20043;-62
2022/03/04 02:39:10;;;;;;;7.88;4.95;;;;;;;-0.28;100.00;98647.19;5130390;28;20047;-62
2022/03/04 02:41:38;;;;;;;8.95;4.25;;;;;;;-0.33;100.00;98592.66;5130045;28;20051;-62
2022/03/04 02:44:06;;;;;;;6.03;3.55;;;;;;;-0.42;100.00;98556.81;5130463;28;20521;-62
2022/03/04 02:46:33;;;;;;;8.50;4.72;;;;;;;-0.48;100.00;98550.72;5130000;28;20057;-62
2022/03/04 02:48:59;;;;;;;8.88;4.15;;;;;;;-0.48;100.00;98548.03;5130202;28;20051;-62
2022/03/04 02:51:25;;;;;;;8.95;4.35;;;;;;;-0.53;100.00;98530.13;5129966;28;20055;-62
2022/03/04 02:53:51;;;;;;;7.70;3.72;;;;;;;-0.49;100.00;98525.72;5129973;28;20043;-62
2022/03/04 02:56:19;;;;;;;6.15;4.18;;;;;;;-0.43;100.00;98528.25;5130189;28;20047;-62
2022/03/04 02:58:45;;;;;;;7.43;3.85;;;;;;;-0.40;100.00;98506.91;5130065;28;20116;-62
2022/03/04 03:01:11;;;;;;;8.98;4.38;;;;;;;-0.51;100.00;98489.41;5129741;28;20101;-62
2022/03/04 03:03:38;;;;;;;8.85;4.50;;;;;;;-0.55;100.00;98483.06;5129580;27;20525;-62
2022/03/04 03:06:04;;;;;;;6.85;3.88;;;;;;;-0.51;100.00;98492.09;5133786;28;20115;-62
2022/03/04 03:08:31;;;;;;;6.20;4.18;;;;;;;-0.51;100.00;98479.44;5133365;28;20090;-63
2022/03/04 03:10:58;;;;;;;7.68;4.28;;;;;;;-0.51;100.00;98473.25;5133775;28;20445;-62
2022/03/04 03:13:24;;;;;;;6.18;4.18;;;;;;;-0.52;100.00;98467.09;5133161;28;20051;-63
2022/03/04 03:15:51;;;;;;;7.40;4.20;;;;;;;-0.64;100.00;98442.63;5133361;28;20051;-62
2022/03/04 03:18:17;;;;;;;7.15;3.92;;;;;;;-0.57;100.00;98469.09;5133292;28;20047;-62
2022/03/04 03:20:44;;;;;;;6.78;4.00;;;;;;;-0.65;100.00;98461.78;5133138;28;20100;-62
2022/03/04 03:23:10;;;;;;;8.27;3.83;;;;;;;-0.66;100.00;98466.38;5133001;28;20409;-62
2022/03/04 03:25:37;;;;;;;5.68;3.97;;;;;;;-0.55;100.00;98446.16;5133227;28;20506;-62
2022/03/04 03:28:03;;;;;;;6.78;3.90;;;;;;;-0.70;100.00;98435.78;5133120;28;20097;-62
2022/03/04 03:30:31;;;;;;;5.55;3.20;;;;;;;-0.77;100.00;98430.84;5133140;28;20104;-62
2022/03/04 03:32:58;;;;;;;5.28;3.67;;;;;;;-0.78;100.00;98423.06;5133363;28;20047;-62
2022/03/04 03:35:24;;;;;;;7.38;3.88;;;;;;;-0.80;100.00;98444.94;5132814;28;20047;-62
2022/03/04 03:37:50;;;;;;;9.75;3.67;;;;;;;-0.69;100.00;98458.91;5133227;28;20043;-62
2022/03/04 03:40:17;;;;;;;12.80;4.25;;;;;;;-0.58;100.00;98446.78;5132768;28;20441;-62
2022/03/04 03:42:43;;;;;;;7.55;3.75;;;;;;;-0.45;100.00;98449.69;5133129;28;20433;-62
2022/03/04 03:45:11;;;;;;;8.05;4.20;;;;;;;-0.51;100.00;98430.97;5132681;28;20054;-62
2022/03/04 03:47:39;;;;;;;12.15;3.85;;;;;;;-0.53;100.00;98459.34;5132746;28;20430;-62
2022/03/04 03:50:06;;;;;;;4.35;3.00;;;;;;;-0.53;100.00;98452.03;5132607;28;20516;-62
2022/03/04 03:52:33;;;;;;;3.80;2.65;;;;;;;-0.47;100.00;98436.53;5132970;28;20047;-62
2022/03/04 03:54:59;;;;;;;9.15;3.33;;;;;;;-0.58;100.00;98405.59;5132828;28;20043;-63
2022/03/04 03:57:25;;;;;;;6.38;3.42;;;;;;;-0.64;100.00;98402.25;5132745;28;20050;-62
2022/03/04 03:59:52;;;;;;;4.35;3.13;;;;;;;-0.66;100.00;98382.94;5132988;28;20452;-62
2022/03/04 04:02:18;;;;;;;5.05;3.08;;;;;;;-0.53;100.00;98400.09;5132546;28;20437;-62
2022/03/04 04:04:46;;;;;;;6.68;3.45;;;;;;;-0.55;100.00;98405.78;5132628;28;20625;-62
2022/03/04 04:07:13;;;;;;;4.72;3.17;;;;;;;-0.66;100.00;98382.94;5132366;28;20533;-62
2022/03/04 04:09:40;;;;;;;5.80;3.30;;;;;;;-0.79;100.00;98397.28;5132644;28;20529;-62
2022/03/04 04:12:07;;;;;;;6.47;2.80;;;;;;;-0.75;100.00;98430.53;5132321;28;20053;-62
2022/03/04 04:14:34;;;;;;;5.20;3.53;;;;;;;-0.68;100.00;98457.81;5132238;28;20054;-62
2022/03/04 04:17:01;;;;;;;4.22;2.83;;;;;;;-0.65;100.00;98464.47;5131471;27;20047;-62
2022/03/04 04:19:27;;;;;;;4.05;2.78;;;;;;;-0.67;100.00;98491.69;5132305;28;20043;-62
2022/03/04 04:21:54;;;;;;;8.75;3.40;;;;;;;-0.65;100.00;98507.56;5132267;28;20116;-62
2022/03/04 04:24:20;;;;;;;4.47;2.75;;;;;;;-0.74;100.00;98523.63;5132269;28;20047;-62
2022/03/04 04:26:47;;;;;;;7.68;2.88;;;;;;;-0.87;100.00;98551.38;5132793;28;20861;-62
2022/03/04 04:29:13;;;;;;;5.70;2.72;;;;;;;-0.89;100.00;98589.38;5132436;28;20047;-62
2022/03/04 04:31:40;;;;;;;7.78;3.38;;;;;;;-0.83;100.00;98622.38;5132422;28;20058;-62
2022/03/04 04:34:07;;;;;;;5.15;2.65;;;;;;;-0.71;100.00;98641.47;5131939;28;20142;-62
2022/03/04 04:36:34;;;;;;;5.97;3.38;;;;;;;-0.79;100.00;98663.72;5132405;28;20434;-62
2022/03/04 04:39:01;;;;;;;5.13;3.17;;;;;;;-0.82;100.00;98683.94;5131886;28;20079;-62
2022/03/04 04:41:27;;;;;;;4.72;2.58;;;;;;;-0.72;100.00;98707.16;5132080;28;20062;-62
2022/03/04 04:43:53;;;;;;;6.78;3.03;;;;;;;-0.69;100.00;98736.19;5131701;28;20055;-62
2022/03/04 04:46:19;;;;;;;4.20;3.00;;;;;;;-0.60;100.00;98749.72;5131717;28;20044;-62
2022/03/04 04:48:46;;;;;;;6.38;2.83;;;;;;;-0.56;100.00;98751.53;5131730;28;20043;-62
2022/03/04 04:51:12;;;;;;;6.93;3.20;;;;;;;-0.66;100.00;98735.56;5131829;28;20348;-62
2022/03/04 04:53:40;;;;;;;4.07;2.70;;;;;;;-0.70;100.00;98748.03;5131890;28;20047;-62
2022/03/04 04:56:07;;;;;;;4.32;2.58;;;;;;;-0.60;100.00;98779.31;5131457;28;20525;-62
2022/03/04 04:58:33;;;;;;;6.45;3.00;;;;;;;-0.51;100.00;98799.88;5131761;28;20051;-63
2022/03/04 05:00:59;;;;;;;6.45;2.65;;;;;;;-0.23;100.00;98845.66;5131301;28;20494;-64
2022/03/04 05:03:27;;;;;;;4.35;2.75;;;;;;;-0.02;100.00;98837.91;5130977;28;20046;-65
2022/03/04 05:05:55;;;;;;;3.67;2.67;;;;;;;0.21;100.00;98801.03;5131031;28;20051;-65
2022/03/04 05:08:24;;;;;;;7.25;2.50;;;;;;;0.22;100.00;98724.44;5131329;28;20077;-64
2022/03/04 05:10:50;;;;;;;6.38;3.08;;;;;;;0.22;100.00;98702.84;5131214;28;20047;-65
2022/03/04 05:13:17;;;;;;;4.47;2.83;;;;;;;0.24;100.00;98681.78;5131390;28;20055;-65
2022/03/04 05:15:44;;;;;;;3.65;2.65;;;;;;;0.43;100.00;98685.06;5122697;27;20058;-64
2022/03/04 05:18:10;;;;;;;3.97;2.60;;;;;;;0.51;100.00;98643.06;5110744;28;20054;-65
2022/03/04 05:20:36;;;;;;;6.57;3.05;;;;;;;0.50;100.00;98605.59;5110918;28;20052;-65
2022/03/04 05:23:03;;;;;;;4.88;2.60;;;;;;;0.30;100.00;98578.09;5110344;28;20048;-64
2022/03/04 05:25:29;;;;;;;6.72;2.67;;;;;;;0.30;100.00;98615.84;5110686;28;20100;-64
2022/03/04 05:27:55;;;;;;;5.45;2.78;;;;;;;0.27;100.00;98611.06;5121868;28;20421;-64
2022/03/04 05:30:22;;;;;;;6.53;2.35;;;;;;;0.32;100.00;98664.06;5124647;27;20051;-63
2022/03/04 05:32:49;;;;;;;7.13;2.72;;;;;;;0.22;100.00;98670.50;5111525;28;20054;-65
2022/03/04 05:35:15;;;;;;;3.72;2.40;;;;;;;0.36;100.00;98700.88;5123181;27;20124;-64
2022/03/04 05:37:42;;;;;;;3.65;2.40;;;;;;;0.30;100.00;98664.38;5120270;27;20047;-66
2022/03/04 05:40:09;;;;;;;6.38;2.60;;;;;;;0.16;100.00;98660.94;5124731;27;20504;-64
2022/03/04 05:42:35;;;;;;;7.97;2.65;;;;;;;0.18;100.00;98699.97;5120179;27;20069;-64
2022/03/04 05:45:02;;;;;;;6.22;2.33;;;;;;;0.22;100.00;98736.00;5120758;27;20055;-65
2022/03/04 05:47:29;;;;;;;5.85;2.72;;;;;;;0.33;100.00;98757.31;5120280;27;20047;-64
2022/03/04 05:49:55;;;;;;;6.03;2.63;;;;;;;0.35;100.00;98758.63;5116060;28;20085;-59
2022/03/04 05:52:21;;;;;;;6.55;2.60;;;;;;;0.45;100.00;98774.53;5135677;27;20051;-65
2022/03/04 05:54:48;;;;;;;4.18;2.42;;;;;;;0.43;100.00;98730.91;5151041;27;20510;-64
2022/03/04 05:57:14;;;;;;;5.20;2.72;;;;;;;0.31;100.00;98727.19;5135089;27;20498;-64
2022/03/04 05:59:41;;;;;;;4.93;2.53;;;;;;;0.39;100.00;98756.88;5128673;28;20059;-67
2022/03/04 06:02:07;;;;;;;5.35;2.85;;;;;;;0.31;100.00;98759.53;5130348;28;20055;-65
2022/03/04 06:04:34;;;;;;;5.35;2.22;;;;;;;0.33;100.00;98760.00;5129609;28;20138;-67
2022/03/04 06:07:00;;;;;;;4.10;2.40;;;;;;;0.37;100.00;98751.03;5130568;28;20051;-68
2022/03/04 06:09:28;;;;;;;6.57;3.05;;;;;;;0.52;100.00;98765.22;5116652;28;20490;-65
2022/03/04 06:11:55;;;;;;;3.67;2.80;;;;;;;0.56;100.00;98758.09;5109585;28;20052;-63
2022/03/04 06:14:21;;;;;;;4.55;2.40;;;;;;;0.34;100.00;98726.56;5110146;28;20055;-64
2022/03/04 06:16:47;;;;;;;14.05;2.67;;;;;;;0.34;100.00;98748.16;5109776;28;20074;-63
2022/03/04 06:19:14;;;;;;;9.32;2.42;;;;;;;0.43;100.00;98762.47;5120928;28;20050;-63
2022/03/04 06:21:41;;;;;;;2.95;2.42;;;;;;;0.47;100.00;98783.13;5130045;28;20051;-63
2022/03/04 06:24:07;;;;;;;4.75;2.75;;;;;;;0.57;100.00;98774.00;5130480;28;20051;-65
2022/03/04 06:26:35;;;;;;;5.28;2.33;;;;;;;0.42;100.00;98755.47;5130092;28;20465;-65
2022/03/04 06:29:01;;;;;;;5.53;2.92;;;;;;;0.49;100.00;98768.53;5120170;28;20047;-66
2022/03/04 06:31:27;;;;;;;10.80;2.63;;;;;;;0.58;100.00;98780.19;5108989;28;20096;-69
2022/03/04 06:33:54;;;;;;;8.48;2.65;;;;;;;0.64;100.00;98773.56;5129762;28;20157;-66
2022/03/04 06:36:20;;;;;;;6.63;2.40;;;;;;;0.63;100.00;98743.09;5129997;28;20494;-64
2022/03/04 06:38:47;;;;;;;5.25;2.75;;;;;;;0.63;100.00;98736.88;5130186;27;20502;-64
2022/03/04 06:41:14;;;;;;;4.03;2.50;;;;;;;0.65;100.00;98764.34;5133495;28;20153;-65
2022/03/04 06:43:42;;;;;;;5.00;2.60;;;;;;;0.52;100.00;98716.69;5114446;28;20055;-65
2022/03/04 06:46:08;;;;;;;6.30;2.17;;;;;;;0.60;100.00;98734.78;5116793;28;20134;-66
2022/03/04 06:48:35;;;;;;;4.55;2.45;;;;;;;0.61;100.00;98706.72;5133114;28;20044;-67
2022/03/04 06:51:03;;;;;;;3.00;2.10;;;;;;;0.58;100.00;98683.88;5133441;28;20046;-65
2022/03/04 06:53:29;;;;;;;3.75;2.28;;;;;;;0.66;100.00;98701.19;5127472;27;20138;-65
2022/03/04 06:55:56;;;;;;;6.13;2.58;;;;;;;0.47;100.00;98640.19;5118034;27;20058;-65
2022/03/04 06:58:22;;;;;;;3.65;2.00;;;;;;;0.37;100.00;98664.72;5112597;28;20047;-63
2022/03/04 07:00:48;;;;;;;3.33;2.15;;;;;;;0.31;100.00;98660.56;5112596;28;20142;-63
2022/03/04 07:03:15;;;;;;;3.70;2.20;;;;;;;0.34;100.00;98689.63;5112734;28;20120;-63
2022/03/04 07:05:43;;;;;;;5.25;2.60;;;;;;;0.37;100.00;98701.69;5121136;27;20060;-64
2022/03/04 07:08:11;;;;;;;3.08;1.77;;;;;;;0.50;100.00;98716.19;5132366;28;20050;-63
2022/03/04 07:10:38;;;;;;;2.80;2.00;;;;;;;0.49;100.00;98687.63;5114182;27;20059;-63
2022/03/04 07:13:06;;;;;;;4.38;2.13;;;;;;;0.46;100.00;98699.81;5112478;28;20146;-63
2022/03/04 07:15:32;;;;;;;2.58;1.92;;;;;;;0.65;100.00;98699.59;5112755;28;20048;-63
2022/03/04 07:17:58;;;;;;;2.53;2.20;;;;;;;0.49;100.00;98621.00;5133312;28;20054;-63
2022/03/04 07:20:25;;;;;;;5.53;1.98;;;;;;;0.56;100.00;98609.75;5122389;28;20105;-63
2022/03/04 07:22:51;;;;;;;2.45;2.15;;;;;;;0.67;100.00;98592.19;5115130;28;20051;-62
2022/03/04 07:25:18;;;;;;;5.15;1.90;;;;;;;0.62;100.00;98559.94;5118941;28;20066;-62
2022/03/04 07:27:44;;;;;;;3.80;2.38;;;;;;;0.65;100.00;98548.53;5112399;28;20084;-62
2022/03/04 07:30:13;;;;;;;3.47;1.98;;;;;;;0.74;100.00;98562.06;5122391;27;20051;-64
2022/03/04 07:32:40;;;;;;;2.75;2.30;;;;;;;0.72;100.00;98505.69;5114922;27;20105;-64
2022/03/04 07:35:08;;;;;;;2.38;1.80;;;;;;;0.83;100.00;98514.28;5131056;28;20268;-64
2022/03/04 07:37:35;;;;;;;5.78;1.50;;;;;;;0.93;100.00;98520.19;5114153;27;20058;-64
2022/03/04 07:40:01;;;;;;;2.17;1.83;;;;;;;1.02;100.00;98495.06;5128532;27;20047;-64
2022/03/04 07:42:28;;;;;;;3.88;1.67;;;;;;;1.34;100.00;98483.00;5134218;27;20074;-64
2022/03/04 07:44:54;;;;;;;1.60;1.50;;;;;;;1.55;100.00;98429.84;5116562;28;20495;-64
2022/03/04 07:47:21;;;;;;;3.05;2.03;;;;;;;1.68;100.00;98392.16;5114482;28;20395;-63
2022/03/04 07:49:47;;;;;;;3.08;1.83;;;;;;;1.82;100.00;98341.38;5123696;27;20166;-64
2022/03/04 07:52:13;;;;;;;2.65;2.30;;;;;;;1.87;100.00;98292.53;5121049;27;20496;-65
2022/03/04 07:54:39;;;;;;;1.58;1.48;;;;;;;2.44;100.00;98289.22;5121570;27;20134;-66
2022/03/04 07:57:06;;;;;;;2.67;1.60;;;;;;;2.62;100.00;98260.06;5113081;28;20418;-66
2022/03/04 07:59:33;;;;;;;7.30;1.95;;;;;;;2.62;100.00;98233.00;5111917;28;20047;-65
2022/03/04 08:01:59;;;;;;;5.53;2.00;;;;;;;2.62;100.00;98216.00;5116128;28;20043;-64
2022/03/04 08:04:26;;;;;;;4.45;1.77;;;;;;;2.97;100.00;98227.22;5116130;28;20051;-64
2022/03/04 08:06:53;;;;;;;5.78;1.90;;;;;;;3.34;100.00;98216.38;5120312;27;20595;-64
2022/03/04 08:09:19;;;;;;;5.70;1.85;;;;;;;4.17;100.00;98204.88;5116870;27;20051;-65
2022/03/04 08:11:46;;;;;;;1.67;1.58;;;;;;;4.93;100.00;98259.19;5117378;28;20051;-64
2022/03/04 08:14:13;;;;;;;1.92;1.77;;;;;;;4.93;100.00;98287.19;5118683;28;20051;-65
2022/03/04 08:16:39;;;;;;;2.55;1.63;;;;;;;5.13;100.00;98331.53;5132241;28;20054;-64
2022/03/04 08:19:06;;;;;;;4.10;2.33;;;;;;;4.71;100.00;98321.13;5130471;28;20047;-66
2022/03/04 08:21:33;;;;;;;3.28;2.17;;;;;;;5.17;100.00;98332.41;5128327;28;20059;-65
2022/03/04 08:23:59;;;;;;;2.40;1.80;;;;;;;4.79;100.00;98337.59;5111418;28;20150;-66
2022/03/04 08:26:25;;;;;;;3.47;1.92;;;;;;;4.88;100.00;98343.66;5111558;28;20048;-65
2022/03/04 08:28:51;;;;;;;3.63;1.52;;;;;;;4.30;100.00;98343.19;5122881;28;20192;-66
2022/03/04 08:31:18;;;;;;;5.28;1.88;;;;;;;4.27;100.00;98319.47;5122648;27;20433;-66
2022/03/04 08:33:45;;;;;;;1.65;1.42;;;;;;;3.94;100.00;98301.47;5123687;27;20042;-65
2022/03/04 08:36:13;;;;;;;2.13;1.80;;;;;;;3.65;100.00;98270.75;5152185;27;20082;-65
2022/03/04 08:38:40;;;;;;;2.00;1.63;;;;;;;3.78;100.00;98279.69;5152264;27;20046;-63
2022/03/04 08:41:06;;;;;;;3.50;1.92;;;;;;;3.75;100.00;98261.38;5140346;27;20525;-64
2022/03/04 08:43:34;;;;;;;3.78;1.60;;;;;;;4.15;100.00;98258.69;5119898;28;20043;-64
2022/03/04 08:46:01;;;;;;;4.78;2.00;;;;;;;3.96;100.00;98291.84;5130231;27;20046;-66
2022/03/04 08:48:27;;;;;;;2.55;1.50;;;;;;;4.27;100.00;98301.28;5123076;27;20097;-65
2022/03/04 08:50:54;;;;;;;2.13;1.70;;;;;;;4.23;100.00;98298.47;5117724;27;20166;-66
2022/03/04 08:53:20;;;;;;;3.28;1.85;;;;;;;4.29;100.00;98296.28;5122788;28;20134;-66
2022/03/04 08:55:48;;;;;;;2.55;1.67;;;;;;;4.32;100.00;98319.22;5111255;28;20056;-67
2022/03/04 08:58:14;;;;;;;3.35;1.70;;;;;;;4.71;100.00;98304.81;5116544;27;20401;-65
2022/03/04 09:00:40;;;;;;;2.42;2.10;;;;;;;4.59;100.00;98328.50;5120184;28;20105;-66
2022/03/04 09:03:07;;;;;;;2.97;1.90;;;;;;;4.57;100.00;98306.38;5114167;27;20058;-65
2022/03/04 09:05:34;;;;;;;7.28;2.85;;;;;;;4.52;100.00;98301.19;5112477;28;20528;-64
2022/03/04 09:08:00;;;;;;;4.40;2.35;;;;;;;4.82;100.00;98290.75;5110627;28;20047;-64
2022/03/04 09:10:27;;;;;;;1.90;1.70;;;;;;;4.71;100.00;98310.25;5110526;28;20400;-63
2022/03/04 09:12:55;;;;;;;3.42;1.90;;;;;;;4.20;100.00;98314.63;5110580;28;20498;-65
2022/03/04 09:15:21;;;;;;;2.40;1.80;;;;;;;3.95;100.00;98284.84;5117416;27;20553;-65
2022/03/04 09:17:48;;;;;;;3.55;2.15;;;;;;;3.84;100.00;98277.53;5118249;28;20402;-65
2022/03/04 09:20:14;;;;;;;2.20;1.85;;;;;;;3.89;100.00;98263.72;5116176;27;20047;-65
2022/03/04 09:22:40;;;;;;;3.60;1.80;;;;;;;3.88;100.00;98276.50;5116740;28;20051;-66
2022/03/04 09:25:07;;;;;;;2.60;2.03;;;;;;;4.18;100.00;98274.28;5110445;28;20060;-66
2022/03/04 09:27:34;;;;;;;3.42;2.17;;;;;;;4.01;100.00;98280.75;5110378;28;20051;-66
2022/03/04 09:30:01;;;;;;;4.13;1.83;;;;;;;4.07;100.00;98275.91;5110523;28;20521;-66
2022/03/04 09:32:27;;;;;;;4.40;1.75;;;;;;;4.15;100.00;98282.31;5110421;28;20517;-67
2022/03/04 09:34:53;;;;;;;3.33;1.92;;;;;;;4.21;100.00;98289.06;5110143;28;20162;-60
2022/03/04 09:37:19;;;;;;;5.22;1.95;;;;;;;4.24;100.00;98280.25;5110453;28;20108;-65
2022/03/04 09:39:46;;;;;;;4.63;2.22;;;;;;;4.10;100.00;98298.81;5118767;27;20054;-64
2022/03/04 09:42:12;;;;;;;3.53;2.30;;;;;;;3.92;100.00;98309.94;5115345;28;20251;-65
2022/03/04 09:44:40;;;;;;;2.15;1.52;;;;;;;3.65;100.00;98291.66;5110052;28;20105;-64
2022/03/04 09:47:09;;;;;;;1.60;1.50;;;;;;;3.58;100.00;98294.16;5109709;28;20143;-65
2022/03/04 09:49:37;;;;;;;2.75;1.85;;;;;;;3.56;100.00;98266.59;5109914;28;20524;-66
2022/03/04 09:52:05;;;;;;;1.98;1.77;;;;;;;3.64;100.00;98268.41;5109862;28;20058;-64
2022/03/04 09:54:32;;;;;;;2.17;1.90;;;;;;;3.58;100.00;98275.97;5110063;28;20188;-65
2022/03/04 09:56:59;;;;;;;4.65;1.98;;;;;;;3.56;100.00;98272.78;5114317;27;20055;-65
2022/03/04 09:59:25;;;;;;;2.53;2.33;;;;;;;3.43;100.00;98269.34;5121019;28;20531;-64
2022/03/04 10:01:52;;;;;;;2.08;1.83;;;;;;;3.02;100.00;98271.09;5110108;28;20052;-67
2022/03/04 10:04:19;;;;;;;2.70;1.90;;;;;;;3.00;100.00;98265.25;5109345;28;20059;-66
2022/03/04 10:06:48;;;;;;;3.83;1.88;;;;;;;2.94;100.00;98253.03;5109998;27;20048;-59
2022/03/04 10:09:34;;;;;;;5.72;2.17;;;;;;;2.85;100.00;98244.22;5116457;28;20078;-63
2022/03/04 10:12:02;;;;;;;2.22;1.80;;;;;;;2.78;100.00;98255.59;5111976;27;20051;-63
2022/03/04 10:14:29;;;;;;;2.08;1.83;;;;;;;2.82;100.00;98256.50;5120317;28;20047;-64
2022/03/04 10:16:56;;;;;;;4.78;2.20;;;;;;;2.90;100.00;98238.59;5118154;28;20059;-65
2022/03/04 10:19:24;;;;;;;2.60;2.08;;;;;;;2.90;100.00;98252.13;5109424;28;20044;-65
2022/03/04 10:21:52;;;;;;;3.13;2.15;;;;;;;2.80;100.00;98264.19;5109678;28;20083;-66
2022/03/04 10:24:21;;;;;;;4.32;2.20;;;;;;;2.66;100.00;98266.38;5117111;28;20047;-65
2022/03/04 10:26:51;;;;;;;4.63;2.33;;;;;;;2.68;100.00;98255.25;5118610;27;20055;-66
2022/03/04 10:29:19;;;;;;;4.82;2.40;;;;;;;2.80;100.00;98255.28;5120269;28;20130;-68
2022/03/04 10:32:11;;;;;;;4.18;2.25;;;;;;;2.81;100.00;98256.84;5130559;28;20062;-67
2022/03/04 10:34:47;;;;;;;4.45;2.50;;;;;;;2.53;100.00;98257.47;5130458;28;20055;-66
2022/03/04 10:37:14;;;;;;;3.50;2.30;;;;;;;2.29;100.00;98258.16;5129823;28;20057;-65
2022/03/04 10:39:58;;;;;;;9.25;2.58;;;;;;;2.27;100.00;98267.75;5130032;28;20383;-65
2022/03/04 10:42:39;;;;;;;5.00;2.60;;;;;;;2.28;100.00;98272.81;5140696;27;20051;-68
2022/03/04 10:45:07;;;;;;;5.53;2.65;;;;;;;2.51;100.00;98273.22;5150803;27;20284;-66
2022/03/04 10:47:42;;;;;;;3.95;2.50;;;;;;;2.49;100.00;98274.69;5150667;27;20425;-65
2022/03/04 10:50:09;;;;;;;2.33;2.00;;;;;;;2.55;100.00;98274.16;5150363;27;20147;-66
2022/03/04 10:52:48;;;;;;;4.15;2.30;;;;;;;2.48;100.00;98265.00;5150400;27;20094;-67
2022/03/04 10:55:24;;;;;;;3.58;2.40;;;;;;;2.46;100.00;98284.25;5137318;27;20050;-66
2022/03/04 10:57:50;;;;;;;4.13;2.30;;;;;;;2.46;100.00;98299.69;5129386;28;20047;-63
2022/03/04 11:00:23;;;;;;;3.95;2.42;;;;;;;2.48;100.00;98313.69;5129557;28;20055;-64
2022/03/04 11:02:50;;;;;;;6.03;2.13;;;;;;;2.35;100.00;98305.50;5129504;28;20053;-66
2022/03/04 11:05:18;;;;;;;3.72;2.17;;;;;;;2.16;100.00;98309.81;5129010;28;20054;-64
2022/03/04 11:07:46;;;;;;;2.85;2.50;;;;;;;2.15;100.00;98329.88;5129232;28;20051;-64
2022/03/04 11:10:12;;;;;;;5.90;2.90;;;;;;;2.26;100.00;98339.94;5129416;28;20079;-65
2022/03/04 11:12:40;;;;;;;5.65;2.28;;;;;;;2.19;100.00;98349.72;5129498;28;20506;-65
2022/03/04 11:15:08;;;;;;;5.13;2.50;;;;;;;2.06;100.00;98346.13;5129451;28;20047;-64
2022/03/04 11:17:36;;;;;;;6.00;2.42;;;;;;;2.09;100.00;98353.59;5129371;28;20081;-65
2022/03/04 11:20:03;;;;;;;5.25;2.50;;;;;;;2.07;100.00;98353.94;5150058;27;20458;-65
2022/03/04 11:22:30;;;;;;;3.50;2.53;;;;;;;2.09;100.00;98361.72;5150048;27;20051;-64
2022/03/04 11:25:02;;;;;;;5.50;2.90;;;;;;;2.03;100.00;98350.31;5150822;27;20053;-64
2022/03/04 11:27:33;;;;;;;4.30;2.60;;;;;;;1.97;100.00;98354.31;5139913;27;20159;-65